Fairfield, Texas
Current Conditions -  °F | °C
As of 7:15 AM on Friday 31 Oct 2014 (Local Time) from KLXY Reporting Station
Clear Clear  
Wind Chill: 55°   Ceiling: Unl
Heat Index: 55°   Visibility: 10mi
Dew Point: 45°   Wind: 9mph
Humidity: 67%   Direction: 340°NNW
Pressure: 30.2"   Gusts: NA
Location:  31.72°N, 96.17°W
Report Text: KLXY 311215Z AUTO 34008KT 10SM CLR 13/07 A3020 RMK AO2 T01300070
Loading
Personal Weather Stations






























Interactive Weather Map
Tropical Storm Tracking
New forecast layout! Learn more

10-Day Weather Forecast

Advertisements
Track Severe Weather on mobile